Time;durP1;ratioP1;P1;durP2;ratioP2;P2;SDS_P1;SDS_P2;PMS_P1;PMS_P2;Temp;Humidity;BMP_temperature;BMP_pressure;BME280_temperature;BME280_humidity;BME280_pressure;Samples;Min_cycle;Max_cycle;Signal;HPM_P1;HPM_P2
2022/02/02 00:02:33;;;;;;;24.48;6.15;;;;;;;10.72;88.94;101832.06;5037565;28;20413;-65
2022/02/02 00:05:16;;;;;;;22.20;6.18;;;;;;;10.68;88.87;101841.22;4998198;28;20420;-65
2022/02/02 00:07:52;;;;;;;19.23;5.78;;;;;;;10.66;88.95;101830.47;5039946;28;20519;-64
2022/02/02 00:13:07;;;;;;;20.40;5.47;;;;;;;10.85;87.74;101823.16;5042402;28;20065;-65
2022/02/02 00:20:57;;;;;;;20.48;5.43;;;;;;;10.91;86.78;101830.25;5035925;28;20053;-65
2022/02/02 00:23:31;;;;;;;16.33;5.65;;;;;;;10.74;87.52;101838.13;5036569;28;20492;-66
2022/02/02 00:26:04;;;;;;;14.70;5.50;;;;;;;10.68;87.80;101828.25;5016564;28;20049;-65
2022/02/02 00:28:36;;;;;;;20.65;4.95;;;;;;;10.62;88.22;101823.06;4998920;28;20133;-65
2022/02/02 00:31:07;;;;;;;17.33;4.95;;;;;;;10.76;87.91;101824.88;4999737;28;20054;-65
2022/02/02 00:33:42;;;;;;;11.55;4.72;;;;;;;10.72;87.42;101817.50;5000383;28;20250;-65
2022/02/02 00:36:15;;;;;;;22.05;5.50;;;;;;;10.70;87.65;101816.94;4999886;28;20060;-64
2022/02/02 00:38:42;;;;;;;18.70;5.05;;;;;;;10.65;87.49;101815.03;5017453;28;20401;-65
2022/02/02 00:41:09;;;;;;;18.42;5.28;;;;;;;10.66;87.75;101822.22;5016790;28;20053;-64
2022/02/02 00:43:39;;;;;;;18.70;5.70;;;;;;;10.83;87.27;101833.63;5028178;28;20058;-67
2022/02/02 00:46:23;;;;;;;19.65;5.07;;;;;;;10.85;86.29;101833.34;5037008;28;20053;-65
2022/02/02 00:48:58;;;;;;;17.13;5.38;;;;;;;10.66;87.40;101827.72;5037044;28;20060;-65
2022/02/02 00:51:34;;;;;;;16.50;4.65;;;;;;;10.94;86.61;101829.69;5037012;28;20394;-65
2022/02/02 00:54:01;;;;;;;18.85;5.18;;;;;;;10.92;86.63;101820.06;5036963;28;20518;-65
2022/02/02 00:56:29;;;;;;;14.70;4.63;;;;;;;10.86;86.62;101835.00;5036530;28;20049;-65
2022/02/02 00:58:56;;;;;;;16.13;4.78;;;;;;;10.83;86.40;101822.63;5036709;28;20061;-66
2022/02/02 01:01:24;;;;;;;20.30;5.53;;;;;;;10.87;86.89;101825.63;5036661;28;20049;-65
2022/02/02 01:03:51;;;;;;;20.58;6.20;;;;;;;10.81;87.04;101838.63;5036349;28;20057;-65
2022/02/02 01:06:20;;;;;;;12.52;4.75;;;;;;;10.83;86.69;101841.06;5036440;28;20401;-65
2022/02/02 01:09:16;;;;;;;22.83;4.57;;;;;;;10.71;87.04;101841.47;5018857;28;20509;-65
2022/02/02 01:19:57;;;;;;;22.27;4.60;;;;;;;10.87;86.93;101831.13;5056399;28;20496;-65
2022/02/02 01:27:48;;;;;;;18.02;4.80;;;;;;;10.69;86.90;101837.31;5056406;28;20049;-66
2022/02/02 01:27:58;;;;;;;15.68;4.10;;;;;;;10.72;87.69;101842.28;5056079;28;20048;-66
2022/02/02 01:30:25;;;;;;;18.90;5.35;;;;;;;10.72;86.91;101837.56;5038574;28;20427;-65
2022/02/02 01:32:52;;;;;;;12.48;4.07;;;;;;;10.59;87.78;101823.63;5056154;28;20053;-65
2022/02/02 01:35:20;;;;;;;14.15;4.53;;;;;;;10.63;87.41;101828.31;5038236;28;20048;-65
2022/02/02 01:37:48;;;;;;;24.98;5.65;;;;;;;10.54;87.80;101838.28;5055429;28;20040;-65
2022/02/02 01:40:43;;;;;;;18.35;4.93;;;;;;;10.76;86.97;101840.59;5037431;28;20056;-64
2022/02/02 01:43:12;;;;;;;19.30;5.35;;;;;;;10.64;87.10;101834.63;5018706;28;20060;-64
2022/02/02 01:45:48;;;;;;;13.23;4.35;;;;;;;10.67;87.12;101839.56;5035739;28;20057;-64
2022/02/02 01:56:11;;;;;;;11.93;4.63;;;;;;;10.88;86.37;101844.63;5035847;28;20048;-65
2022/02/02 02:01:08;;;;;;;;;;;;;;;10.68;87.22;101849.47;5036227;28;20405;-65
2022/02/02 02:03:36;;;;;;;17.27;5.30;;;;;;;10.62;87.52;101850.59;5035750;28;19921;-64
2022/02/02 02:06:05;;;;;;;24.10;6.10;;;;;;;10.52;88.32;101840.50;5007061;28;20053;-65
2022/02/02 02:08:35;;;;;;;22.02;6.43;;;;;;;10.60;87.90;101847.34;5034453;28;20045;-66
2022/02/02 02:11:06;;;;;;;20.80;6.43;;;;;;;10.68;87.96;101855.81;5035520;28;20057;-66
2022/02/02 02:16:11;;;;;;;17.58;6.40;;;;;;;10.50;88.53;101853.72;5033319;28;20053;-67
2022/02/02 02:18:38;;;;;;;16.98;6.38;;;;;;;10.54;88.47;101848.47;5035193;28;20056;-65
2022/02/02 02:21:11;;;;;;;20.83;6.93;;;;;;;10.54;88.61;101848.47;5035420;28;20068;-66
2022/02/02 02:23:38;;;;;;;16.08;6.80;;;;;;;10.51;89.23;101841.63;5033261;28;20049;-65
2022/02/02 02:26:07;;;;;;;20.00;7.03;;;;;;;10.59;88.83;101826.38;5035149;28;20092;-66
2022/02/02 02:31:14;;;;;;;13.30;7.05;;;;;;;10.76;88.72;101851.59;5025346;28;20053;-66
2022/02/02 02:39:29;;;;;;;19.40;7.50;;;;;;;10.71;88.52;101843.38;5035104;28;20369;-64
2022/02/02 03:01:15;;;;;;;18.52;9.02;;;;;;;10.64;90.09;101842.88;5035060;28;20053;-65
2022/02/02 03:34:57;;;;;;;14.82;7.53;;;;;;;10.45;90.41;101840.00;4934721;29;20055;-64
2022/02/02 03:51:34;;;;;;;16.10;6.75;;;;;;;10.39;90.34;101863.16;5000334;28;20056;-70
2022/02/02 04:07:20;;;;;;;15.88;6.85;;;;;;;10.52;89.75;101850.69;5015928;28;20631;-64
2022/02/02 04:09:49;;;;;;;14.95;6.88;;;;;;;10.52;89.69;101850.69;5016894;28;20050;-66
2022/02/02 05:29:09;;;;;;;16.55;8.10;;;;;;;10.75;87.67;101861.81;5036081;28;20056;-66
2022/02/02 05:52:20;;;;;;;16.10;6.35;;;;;;;10.52;89.32;101879.06;5036096;28;20057;-65
2022/02/02 05:54:47;;;;;;;14.77;6.18;;;;;;;10.55;89.08;101881.25;5018196;28;20060;-66
2022/02/02 05:57:16;;;;;;;16.98;6.38;;;;;;;10.47;89.18;101892.88;5035285;28;20061;-66
2022/02/02 05:59:44;;;;;;;16.38;5.32;;;;;;;10.44;89.69;101890.69;5035926;28;20145;-64
2022/02/02 06:02:13;;;;;;;14.93;4.80;;;;;;;10.40;89.95;101891.53;5035885;28;20060;-65
2022/02/02 06:04:44;;;;;;;16.85;5.05;;;;;;;10.53;89.50;101904.69;5018066;28;20057;-65
2022/02/02 06:07:15;;;;;;;13.27;5.35;;;;;;;10.70;88.26;101896.84;5035447;28;20057;-66
2022/02/02 06:09:47;;;;;;;14.85;5.82;;;;;;;10.53;89.07;101897.22;5018239;28;20416;-66
2022/02/02 06:12:20;;;;;;;15.30;5.68;;;;;;;10.40;89.46;101895.09;5022034;28;20048;-66
2022/02/02 06:14:50;;;;;;;12.13;4.32;;;;;;;10.43;89.73;101900.03;5036952;28;20056;-65
2022/02/02 06:17:19;;;;;;;14.88;5.40;;;;;;;10.52;89.18;101901.09;5037492;28;20060;-66
2022/02/02 06:19:46;;;;;;;12.77;4.38;;;;;;;10.64;88.58;101906.25;5026645;28;20049;-65
2022/02/02 06:22:20;;;;;;;13.57;5.53;;;;;;;10.51;88.73;101898.63;5015569;28;20057;-65
2022/02/02 06:25:08;;;;;;;12.30;3.45;;;;;;;10.72;88.09;101903.72;5015737;28;20410;-66
2022/02/02 06:27:37;;;;;;;10.57;4.00;;;;;;;10.75;87.47;101903.16;5015262;28;20049;-65
2022/02/02 06:30:07;;;;;;;12.75;3.63;;;;;;;10.79;87.33;101900.66;4998343;28;20405;-66
2022/02/02 06:32:47;;;;;;;11.75;3.75;;;;;;;10.83;87.23;101901.72;5011330;28;20065;-67
2022/02/02 06:35:15;;;;;;;10.10;3.70;;;;;;;10.81;87.13;101921.28;5015147;28;20054;-66
2022/02/02 06:37:43;;;;;;;15.52;3.40;;;;;;;10.92;86.45;101916.53;5024273;28;20050;-66
2022/02/02 06:40:12;;;;;;;10.80;3.33;;;;;;;10.72;87.06;101913.94;5017324;28;20049;-65
2022/02/02 06:42:40;;;;;;;8.52;3.70;;;;;;;10.72;87.96;101911.97;5034832;28;20049;-65
2022/02/02 06:45:09;;;;;;;16.77;3.20;;;;;;;10.62;87.62;101911.22;5034774;28;20053;-65
2022/02/02 06:47:38;;;;;;;11.63;3.00;;;;;;;10.69;87.88;101917.25;5034858;28;20064;-65
2022/02/02 06:50:13;;;;;;;12.10;3.40;;;;;;;10.68;87.75;101910.94;5034741;28;20047;-65
2022/02/02 06:52:44;;;;;;;14.20;4.63;;;;;;;10.70;87.73;101905.13;5034842;28;20062;-65
2022/02/02 06:55:25;;;;;;;11.52;3.53;;;;;;;10.57;88.00;101920.34;5034792;28;20060;-65
2022/02/02 06:58:12;;;;;;;8.50;3.22;;;;;;;10.54;88.48;101933.88;4999401;28;20061;-65
2022/02/02 07:00:57;;;;;;;13.70;4.35;;;;;;;10.57;88.62;101934.13;4997444;28;20046;-65
2022/02/02 07:03:46;;;;;;;14.52;4.50;;;;;;;10.63;89.04;101933.00;4980655;28;20064;-65
2022/02/02 07:06:32;;;;;;;12.48;4.50;;;;;;;10.73;88.77;101937.63;5004830;28;20061;-64
2022/02/02 07:14:37;;;;;;;17.77;5.00;;;;;;;10.46;90.02;101939.97;5033673;28;20052;-64
2022/02/02 07:22:26;;;;;;;13.10;3.45;;;;;;;10.48;90.30;101940.53;5032521;28;20072;-65
2022/02/02 07:27:38;;;;;;;12.65;3.00;;;;;;;10.82;89.51;101946.94;5033605;28;20061;-64
2022/02/02 07:33:11;;;;;;;9.43;2.67;;;;;;;10.72;89.50;101958.81;5033903;28;20061;-64
2022/02/02 07:38:47;;;;;;;13.88;3.70;;;;;;;10.83;89.26;101963.19;5036641;28;20489;-65
2022/02/02 07:41:24;;;;;;;11.95;3.30;;;;;;;10.91;90.16;101964.53;5034380;28;20041;-66
2022/02/02 07:44:01;;;;;;;13.93;4.70;;;;;;;11.17;90.92;101961.31;5003517;28;20057;-62
2022/02/02 07:46:29;;;;;;;10.68;3.47;;;;;;;11.43;89.57;101961.09;5036541;28;20053;-65
2022/02/02 07:48:56;;;;;;;11.68;2.85;;;;;;;11.42;87.85;101965.78;5034369;28;20053;-67
2022/02/02 07:51:27;;;;;;;16.70;3.33;;;;;;;11.28;88.36;101973.06;5036449;28;20041;-67
2022/02/02 07:53:58;;;;;;;;;;;;;;;11.49;88.17;101980.06;5038392;28;20045;-68
2022/02/02 07:56:41;;;;;;;8.27;2.90;;;;;;;11.34;88.01;101981.03;5037646;28;19928;-69
2022/02/02 07:59:30;;;;;;;9.45;3.35;;;;;;;11.83;87.43;101977.31;5018776;28;20057;-68
2022/02/02 08:01:59;;;;;;;12.07;3.00;;;;;;;11.41;86.96;101971.59;5035362;28;20046;-68
2022/02/02 08:04:29;;;;;;;8.33;2.40;;;;;;;11.44;86.28;101977.34;5035308;28;20056;-67
2022/02/02 08:06:57;;;;;;;12.02;2.55;;;;;;;11.43;85.92;101972.97;5037067;28;20492;-69
2022/02/02 08:11:58;;;;;;;10.95;2.65;;;;;;;11.44;86.28;101971.03;5037939;28;20045;-67
2022/02/02 08:14:32;;;;;;;16.48;3.10;;;;;;;11.49;86.52;101971.00;5040988;28;20049;-68
2022/02/02 08:16:59;;;;;;;13.23;3.40;;;;;;;11.46;86.35;101971.53;5037115;28;20061;-69
2022/02/02 08:19:27;;;;;;;15.73;3.10;;;;;;;11.42;85.95;101976.00;5019062;28;20061;-68
2022/02/02 08:21:54;;;;;;;7.40;2.78;;;;;;;11.23;87.10;101978.63;5019131;28;20057;-69
2022/02/02 08:24:22;;;;;;;13.57;3.10;;;;;;;11.40;87.06;101983.75;5037229;28;20045;-68
2022/02/02 08:26:50;;;;;;;15.45;2.83;;;;;;;11.56;86.04;101985.28;5036764;28;20053;-67
2022/02/02 08:29:17;;;;;;;9.75;2.45;;;;;;;11.61;85.43;101983.28;5036952;28;20053;-67
2022/02/02 08:31:44;;;;;;;8.93;2.75;;;;;;;11.44;85.69;101982.88;5044456;28;20396;-69
2022/02/02 08:34:13;;;;;;;14.73;2.70;;;;;;;11.46;85.95;101988.94;5023373;28;20056;-67
2022/02/02 08:36:49;;;;;;;14.70;2.47;;;;;;;11.38;85.48;101993.13;5022074;28;20060;-69
2022/02/02 08:41:57;;;;;;;10.02;2.60;;;;;;;11.38;85.23;101987.59;5035731;28;20041;-67
2022/02/02 08:44:28;;;;;;;13.30;3.08;;;;;;;11.29;85.43;101994.03;5035823;28;20060;-67
2022/02/02 08:47:03;;;;;;;7.68;2.85;;;;;;;11.04;86.61;101997.78;5035915;28;20053;-66
2022/02/02 08:49:35;;;;;;;11.43;4.10;;;;;;;11.16;86.23;102000.19;5018686;28;20062;-69
2022/02/02 08:52:03;;;;;;;10.80;3.40;;;;;;;11.25;85.95;101999.31;5036327;28;20041;-67
2022/02/02 09:02:07;;;;;;;10.65;3.30;;;;;;;11.40;85.72;102003.91;5035819;28;20045;-67
2022/02/02 09:07:21;;;;;;;7.95;2.78;;;;;;;11.44;83.29;101995.88;5035285;28;20064;-67
2022/02/02 09:10:00;;;;;;;8.32;2.50;;;;;;;11.50;83.83;101994.69;5036485;28;20057;-66
2022/02/02 09:22:26;;;;;;;7.68;2.85;;;;;;;11.50;82.37;101994.69;5030966;28;20044;-67
2022/02/02 09:23:57;;;;;;;8.45;2.45;;;;;;;11.38;83.02;101990.38;5028322;28;20538;-67
2022/02/02 09:31:25;;;;;;;9.95;3.00;;;;;;;11.18;83.39;102001.56;5035950;28;20052;-67
2022/02/02 09:32:22;;;;;;;8.07;2.75;;;;;;;11.10;83.73;102002.19;4997975;28;20041;-69
2022/02/02 09:34:52;;;;;;;8.48;3.45;;;;;;;11.01;84.30;101998.38;5028806;28;20508;-67
2022/02/02 09:37:22;;;;;;;6.90;3.10;;;;;;;11.30;83.95;101995.66;5037449;28;20053;-68
2022/02/02 09:40:00;;;;;;;7.37;3.10;;;;;;;11.24;83.09;101997.63;5044903;28;20064;-68
2022/02/02 09:42:30;;;;;;;6.70;2.78;;;;;;;11.35;83.48;102001.16;5039492;28;20045;-68
2022/02/02 09:45:01;;;;;;;7.13;2.92;;;;;;;11.30;82.77;101998.44;5026437;28;20488;-67
2022/02/02 09:47:35;;;;;;;7.07;2.65;;;;;;;11.31;82.85;101991.81;5027708;28;20129;-67
2022/02/02 09:50:12;;;;;;;8.05;2.70;;;;;;;11.33;82.63;101995.13;5008892;28;20068;-68
2022/02/02 09:52:43;;;;;;;7.13;2.75;;;;;;;11.38;82.23;102001.41;5029313;28;20057;-67
2022/02/02 10:03:46;;;;;;;10.70;3.50;;;;;;;11.17;83.19;102012.88;5040994;28;20053;-68
2022/02/02 10:06:18;;;;;;;9.95;2.90;;;;;;;11.16;83.48;102006.53;5055071;28;20065;-67
2022/02/02 10:14:18;;;;;;;8.02;3.00;;;;;;;11.17;84.49;102018.41;5034874;28;20057;-68
2022/02/02 10:16:48;;;;;;;6.30;2.50;;;;;;;11.32;83.67;102021.88;5034957;28;20066;-67
2022/02/02 10:19:20;;;;;;;10.70;2.97;;;;;;;11.49;83.39;102015.94;5034947;28;20057;-68
2022/02/02 10:21:47;;;;;;;7.90;2.95;;;;;;;11.78;81.73;102019.59;5028104;28;20538;-67
2022/02/02 10:24:15;;;;;;;7.38;2.85;;;;;;;11.63;81.42;102008.66;5038402;28;20393;-68
2022/02/02 10:26:44;;;;;;;6.47;3.00;;;;;;;11.25;82.26;102012.25;5038278;28;20402;-68
2022/02/02 10:29:15;;;;;;;9.48;3.55;;;;;;;11.35;83.54;102012.19;5016660;28;20060;-68
2022/02/02 10:31:46;;;;;;;4.95;2.42;;;;;;;11.27;83.92;102021.06;5035085;28;20045;-69
2022/02/02 10:34:18;;;;;;;8.77;4.20;;;;;;;11.51;83.47;102026.69;5034753;28;20049;-68
2022/02/02 10:37:18;;;;;;;4.40;2.25;;;;;;;11.37;82.00;102031.22;5018672;28;20052;-69
2022/02/02 10:39:47;;;;;;;7.53;3.65;;;;;;;11.22;83.74;102032.97;5015404;28;20053;-68
2022/02/02 10:42:38;;;;;;;13.77;4.70;;;;;;;11.33;83.19;102031.78;5034507;28;20056;-67
2022/02/02 10:45:16;;;;;;;6.95;4.05;;;;;;;11.40;83.28;102037.00;5012618;28;20053;-68
2022/02/02 10:47:46;;;;;;;9.82;5.05;;;;;;;11.23;81.89;102042.88;5034515;28;20045;-68
2022/02/02 10:50:41;;;;;;;;;;;;;;;11.20;83.17;102048.97;5031003;28;20056;-69
2022/02/02 11:09:06;;;;;;;12.82;6.15;;;;;;;11.79;80.62;102025.94;5018986;28;20049;-69
2022/02/02 11:11:38;;;;;;;7.82;4.70;;;;;;;11.94;80.00;102031.34;5036816;28;20050;-70
2022/02/02 11:14:11;;;;;;;7.32;3.92;;;;;;;11.31;82.05;102039.50;5056116;28;20388;-68
2022/02/02 11:16:40;;;;;;;5.38;3.03;;;;;;;11.04;83.08;102032.81;5054696;28;20408;-68
2022/02/02 11:19:08;;;;;;;9.30;3.50;;;;;;;10.95;84.53;102037.25;5036894;28;20049;-69
2022/02/02 11:21:36;;;;;;;10.35;4.65;;;;;;;11.03;84.59;102020.97;5019045;28;20052;-68
2022/02/02 11:24:24;;;;;;;7.50;2.90;;;;;;;11.06;84.76;102023.16;5036965;28;20057;-68
2022/02/02 11:26:51;;;;;;;5.35;2.28;;;;;;;11.03;84.40;102023.72;5017565;28;20052;-66
2022/02/02 11:29:43;;;;;;;6.70;3.47;;;;;;;10.82;85.14;102030.44;5021408;28;20045;-68
2022/02/02 11:32:13;;;;;;;9.57;4.72;;;;;;;11.16;85.19;102044.31;5018916;28;20046;-68
2022/02/02 11:34:41;;;;;;;14.68;8.68;;;;;;;11.16;84.72;102031.34;5009437;28;20167;-67
2022/02/02 11:37:10;;;;;;;42.50;24.98;;;;;;;11.21;83.84;102036.00;4999125;28;20084;-64
2022/02/02 11:40:03;;;;;;;10.88;6.05;;;;;;;11.15;83.63;102032.47;5036701;28;20658;-67
2022/02/02 11:42:55;;;;;;;9.80;6.00;;;;;;;11.31;83.42;102030.44;5036658;28;20046;-66
2022/02/02 11:45:46;;;;;;;7.55;3.05;;;;;;;11.07;83.57;102032.25;5031823;28;20041;-67
2022/02/02 11:48:54;;;;;;;16.38;4.78;;;;;;;11.14;84.20;102024.50;5033367;28;20539;-67
2022/02/02 11:51:40;;;;;;;8.65;4.15;;;;;;;11.35;83.16;102018.53;5035793;28;20061;-68
2022/02/02 11:54:09;;;;;;;6.15;2.50;;;;;;;11.27;82.39;102018.31;5036384;28;20045;-67
2022/02/02 11:57:03;;;;;;;6.90;2.38;;;;;;;11.19;82.25;102022.50;5040252;28;20041;-69
2022/02/02 12:00:12;;;;;;;6.55;2.83;;;;;;;10.97;83.68;102024.00;5035820;28;20038;-68
2022/02/02 12:02:57;;;;;;;8.53;3.00;;;;;;;10.77;84.34;102029.66;5035277;28;20042;-68
2022/02/02 12:58:37;;;;;;;4.05;1.80;;;;;;;11.65;77.53;102008.38;5036084;28;20057;-68
2022/02/02 13:03:12;;;;;;;11.95;4.90;;;;;;;11.75;76.88;101998.09;5014765;28;20057;-69
2022/02/02 13:05:41;;;;;;;7.30;3.25;;;;;;;11.76;76.97;102005.28;5021189;28;20068;-68
2022/02/02 13:08:09;;;;;;;6.57;1.45;;;;;;;11.41;77.84;101993.66;5035485;28;20049;-68
2022/02/02 13:10:38;;;;;;;4.30;1.40;;;;;;;11.57;77.73;101995.19;5039897;28;20605;-68
2022/02/02 13:13:19;;;;;;;3.90;1.27;;;;;;;11.71;77.25;102004.47;5050276;28;20072;-69
2022/02/02 13:15:56;;;;;;;6.22;2.10;;;;;;;11.92;76.22;102001.25;5040164;28;20049;-68
2022/02/02 13:18:34;;;;;;;5.32;1.55;;;;;;;11.87;75.98;101992.19;5039443;28;20539;-68
2022/02/02 13:24:08;;;;;;;7.70;1.92;;;;;;;11.52;76.46;102004.34;5046967;28;20045;-67
2022/02/02 13:32:05;;;;;;;3.88;1.40;;;;;;;10.92;78.70;102000.06;5039620;28;20060;-66
2022/02/02 13:35:42;;;;;;;2.50;1.40;;;;;;;10.97;78.93;102011.06;5041889;28;20053;-67
2022/02/02 13:45:51;;;;;;;6.43;2.67;;;;;;;11.45;76.61;101995.56;5050005;28;20060;-67
2022/02/02 13:48:47;;;;;;;4.32;1.40;;;;;;;11.53;75.63;102000.47;5054728;28;20060;-67
2022/02/02 13:54:30;;;;;;;7.88;1.70;;;;;;;11.46;74.70;102007.41;5050060;28;20038;-67
2022/02/02 14:05:20;;;;;;;3.28;1.00;;;;;;;11.06;76.45;102017.63;5033300;28;20069;-67
2022/02/02 14:09:01;;;;;;;4.50;1.23;;;;;;;10.90;77.33;102021.56;5035294;28;20064;-67
2022/02/02 14:33:11;;;;;;;6.00;1.33;;;;;;;11.21;74.36;101991.88;5028702;28;20045;-66
2022/02/02 14:35:39;;;;;;;2.58;1.15;;;;;;;11.47;74.11;101995.28;5034818;28;20053;-66
2022/02/02 14:38:06;;;;;;;3.55;1.10;;;;;;;11.44;73.99;101999.44;5034843;28;20061;-71
2022/02/02 14:43:39;;;;;;;3.40;0.90;;;;;;;11.37;73.93;102012.72;5031709;28;20420;-65
2022/02/02 14:46:10;;;;;;;6.30;1.40;;;;;;;11.59;73.01;102013.13;5034281;28;20071;-64
2022/02/02 14:48:45;;;;;;;4.68;1.45;;;;;;;11.14;72.91;102017.03;5034874;28;20400;-64
2022/02/02 15:27:58;;;;;;;5.07;1.23;;;;;;;11.25;73.00;102010.34;5028092;28;20057;-63
2022/02/02 15:32:57;;;;;;;5.95;1.33;;;;;;;11.12;74.19;102010.97;5016166;28;20057;-69
2022/02/02 15:35:26;;;;;;;4.78;1.65;;;;;;;11.41;73.23;102005.53;5045940;28;20057;-67
2022/02/02 15:38:13;;;;;;;6.25;1.45;;;;;;;11.40;73.45;102016.84;5034451;28;20049;-67
2022/02/02 15:40:48;;;;;;;6.60;2.22;;;;;;;11.43;73.35;102016.28;5044372;28;20056;-68
2022/02/02 15:43:43;;;;;;;4.78;1.65;;;;;;;11.41;72.87;102019.31;5038954;28;20044;-68
2022/02/02 16:03:02;;;;;;;4.28;1.60;;;;;;;11.79;70.33;101995.56;5037686;28;20053;-64
2022/02/02 16:05:33;;;;;;;3.35;1.50;;;;;;;11.90;69.34;101997.97;5036251;28;20382;-64
2022/02/02 16:08:05;;;;;;;2.70;1.35;;;;;;;11.52;69.70;101989.72;5018114;28;20053;-64
2022/02/02 16:10:48;;;;;;;4.57;1.80;;;;;;;11.47;70.51;101982.31;5037129;28;20053;-65
2022/02/02 16:14:24;;;;;;;6.03;1.88;;;;;;;11.50;70.01;101983.66;5022455;28;20496;-66
2022/02/02 16:18:57;;;;;;;6.05;2.00;;;;;;;11.70;69.23;101978.00;5020352;28;20053;-66
2022/02/02 16:37:58;;;;;;;7.07;2.25;;;;;;;11.41;69.55;101969.66;5023389;28;20125;-66
2022/02/02 16:40:31;;;;;;;5.78;2.08;;;;;;;11.42;69.08;101968.53;5044166;28;20041;-66
2022/02/02 16:43:14;;;;;;;6.95;2.00;;;;;;;11.38;69.11;101968.28;5034660;28;20050;-67
2022/02/02 16:45:44;;;;;;;6.03;2.10;;;;;;;11.45;69.15;101969.91;5025181;28;20052;-66
2022/02/02 16:48:12;;;;;;;7.90;2.00;;;;;;;11.78;67.98;101971.84;5032829;28;20153;-65
2022/02/02 16:50:44;;;;;;;6.63;2.15;;;;;;;11.80;67.17;101969.63;5036638;28;20432;-66
2022/02/02 16:53:23;;;;;;;5.20;2.00;;;;;;;11.64;67.23;101965.31;5048904;28;20061;-66
2022/02/02 16:56:15;;;;;;;4.60;2.20;;;;;;;11.92;66.85;101956.25;5056996;28;20053;-66
2022/02/02 17:34:34;;;;;;;4.50;1.85;;;;;;;11.17;67.48;101960.47;5056262;28;20049;-71
2022/02/02 17:37:18;;;;;;;3.75;1.70;;;;;;;11.16;67.50;101967.91;5056232;28;20057;-65
2022/02/02 18:20:10;;;;;;;5.45;2.33;;;;;;;11.29;65.81;101977.50;5034812;28;20041;-66
2022/02/02 18:22:46;;;;;;;5.22;2.40;;;;;;;11.55;65.10;101969.81;5035468;28;20053;-67
2022/02/02 18:25:28;;;;;;;6.30;2.30;;;;;;;11.68;64.85;101971.94;5002354;28;20050;-66
2022/02/02 18:28:13;;;;;;;4.90;2.35;;;;;;;11.70;64.56;101972.50;5035022;28;20055;-66
2022/02/02 18:30:53;;;;;;;7.70;2.70;;;;;;;11.62;64.82;101970.31;5016478;28;20057;-66
2022/02/02 18:33:35;;;;;;;11.35;4.65;;;;;;;11.75;64.49;101958.63;5017262;28;20068;-67
2022/02/02 18:46:55;;;;;;;6.05;2.50;;;;;;;11.61;64.18;101966.72;4986577;28;20058;-66
2022/02/02 19:00:16;;;;;;;4.88;2.40;;;;;;;11.95;64.50;101973.06;5020689;28;20060;-67
2022/02/02 19:08:03;;;;;;;6.65;3.45;;;;;;;12.30;62.68;101967.13;5047388;28;20076;-67
2022/02/02 20:05:19;;;;;;;7.35;3.90;;;;;;;11.62;63.39;101951.00;5020712;28;20071;-64
2022/02/02 20:11:15;;;;;;;9.63;3.80;;;;;;;11.71;63.55;101957.56;5021213;28;20393;-68
2022/02/02 20:13:26;;;;;;;6.85;3.38;;;;;;;11.39;64.12;101958.09;5034463;28;20367;-65
2022/02/02 20:15:54;;;;;;;6.80;3.42;;;;;;;11.36;63.93;101961.44;5037793;28;20056;-66
2022/02/02 20:18:24;;;;;;;8.00;3.63;;;;;;;11.35;64.27;101962.53;5037387;28;20049;-64
2022/02/02 20:20:53;;;;;;;8.70;4.05;;;;;;;11.59;63.85;101970.91;5021665;28;20053;-65
2022/02/02 20:23:21;;;;;;;6.57;3.33;;;;;;;11.52;63.79;101973.16;5029760;28;20047;-66
2022/02/02 20:25:52;;;;;;;8.13;3.30;;;;;;;11.36;64.23;101972.47;5037927;28;20073;-67
2022/02/02 20:28:19;;;;;;;6.38;3.00;;;;;;;11.34;63.91;101972.75;5037285;28;20049;-66
2022/02/02 20:30:46;;;;;;;6.85;3.47;;;;;;;11.46;63.89;101982.59;5037124;28;20382;-67
2022/02/02 20:33:14;;;;;;;10.13;3.80;;;;;;;11.26;64.30;101980.84;5036904;28;20053;-66
2022/02/02 20:35:41;;;;;;;7.93;2.53;;;;;;;11.22;64.22;101988.84;5037236;28;20052;-66
2022/02/02 20:38:09;;;;;;;6.88;2.67;;;;;;;11.05;64.82;101988.41;5035056;28;20500;-63
2022/02/02 20:40:37;;;;;;;7.57;2.88;;;;;;;11.15;63.93;101982.84;5032527;28;20053;-64
2022/02/02 20:43:08;;;;;;;9.93;4.00;;;;;;;11.12;64.16;101975.13;5016029;28;20057;-65
2022/02/02 20:47:00;;;;;;;6.80;2.75;;;;;;;11.11;64.03;101975.41;5017721;28;20068;-64
2022/02/02 21:10:23;;;;;;;5.65;1.90;;;;;;;10.92;62.08;101972.50;5036196;28;20057;-67
2022/02/02 21:15:39;;;;;;;6.43;2.90;;;;;;;11.18;61.63;101962.13;5049401;28;20053;-66
2022/02/02 21:18:13;;;;;;;5.25;2.15;;;;;;;10.82;61.55;101956.03;5035892;28;20521;-66
2022/02/02 21:20:48;;;;;;;6.45;2.70;;;;;;;10.90;61.78;101966.44;5036803;28;20050;-68
2022/02/02 21:28:27;;;;;;;5.38;2.05;;;;;;;11.01;61.42;101958.94;5036681;28;20488;-66
2022/02/02 21:30:54;;;;;;;6.45;2.28;;;;;;;10.93;61.37;101960.34;5036493;28;20057;-68
2022/02/02 21:33:22;;;;;;;6.68;2.30;;;;;;;10.64;62.14;101956.69;5018122;28;20072;-65
2022/02/02 21:35:50;;;;;;;9.35;3.08;;;;;;;10.81;62.00;101954.38;5037393;28;20046;-67
2022/02/02 21:40:57;;;;;;;7.45;2.47;;;;;;;10.95;61.54;101952.63;5055286;28;20055;-67
2022/02/02 21:43:26;;;;;;;7.90;3.85;;;;;;;11.15;61.35;101951.66;5000088;28;20045;-66
2022/02/02 21:45:58;;;;;;;9.90;3.75;;;;;;;11.13;61.54;101951.97;5034240;28;20056;-66
2022/02/02 21:48:31;;;;;;;15.57;6.88;;;;;;;11.14;61.53;101948.06;5018114;28;20064;-64
2022/02/02 21:51:05;;;;;;;11.30;4.82;;;;;;;11.17;61.92;101944.78;5035158;28;20064;-66
2022/02/02 21:53:32;;;;;;;11.95;4.00;;;;;;;11.23;61.66;101951.88;5034961;28;20064;-65
2022/02/02 21:56:00;;;;;;;8.00;2.65;;;;;;;10.88;62.07;101941.09;5034997;28;20049;-66
2022/02/02 21:58:27;;;;;;;6.70;2.50;;;;;;;11.03;62.13;101937.44;5018131;28;20084;-66
2022/02/02 22:00:54;;;;;;;4.65;2.40;;;;;;;11.09;62.47;101933.50;5040176;28;20044;-66
2022/02/02 22:03:22;;;;;;;5.57;2.10;;;;;;;11.01;62.62;101934.97;5018704;28;20061;-67
2022/02/02 22:05:49;;;;;;;15.93;7.32;;;;;;;11.25;62.66;101940.56;5034803;28;20508;-67
2022/02/02 22:08:17;;;;;;;24.15;13.75;;;;;;;11.20;62.53;101927.63;5034209;28;20049;-67
2022/02/02 22:10:44;;;;;;;26.40;13.40;;;;;;;11.27;62.66;101928.13;5034015;28;20076;-67
2022/02/02 22:13:11;;;;;;;14.50;7.40;;;;;;;11.24;62.73;101928.69;5039371;28;20041;-66
2022/02/02 22:15:41;;;;;;;8.32;3.65;;;;;;;11.17;62.92;101927.38;5034355;28;20045;-67
2022/02/02 22:18:08;;;;;;;5.53;2.47;;;;;;;10.99;64.16;101939.09;5036046;28;20041;-67
2022/02/02 22:20:35;;;;;;;7.63;3.45;;;;;;;11.14;63.66;101931.53;5017051;28;20042;-66
2022/02/02 22:23:03;;;;;;;6.95;2.75;;;;;;;11.02;64.45;101922.81;5016777;28;20053;-66
2022/02/02 22:25:30;;;;;;;10.95;4.10;;;;;;;11.09;64.55;101928.81;5034691;28;20050;-67
2022/02/02 22:27:58;;;;;;;7.80;3.63;;;;;;;11.00;64.85;101924.22;5037799;28;20056;-66
2022/02/02 22:30:25;;;;;;;7.45;2.70;;;;;;;11.08;64.64;101921.66;5049402;28;20049;-67
2022/02/02 22:32:52;;;;;;;10.88;3.05;;;;;;;11.01;64.32;101932.19;5052810;28;20412;-67
2022/02/02 22:35:19;;;;;;;8.63;2.90;;;;;;;11.03;64.03;101929.97;5027756;28;20045;-67
2022/02/02 22:37:47;;;;;;;10.25;2.70;;;;;;;10.85;64.11;101925.13;5038268;28;20046;-66
2022/02/02 22:40:20;;;;;;;9.35;2.63;;;;;;;10.82;63.75;101931.22;5033989;28;20060;-67
2022/02/02 22:42:48;;;;;;;8.02;2.60;;;;;;;10.74;63.78;101926.31;5036677;28;20060;-67
2022/02/02 22:45:15;;;;;;;7.70;2.40;;;;;;;10.76;63.57;101917.75;5035392;28;20060;-67
2022/02/02 22:47:45;;;;;;;9.13;3.05;;;;;;;10.94;63.14;101926.19;5016612;28;20511;-67
2022/02/02 22:50:13;;;;;;;7.70;2.30;;;;;;;10.98;62.85;101918.97;5034461;28;20053;-66
2022/02/02 22:52:45;;;;;;;8.95;2.60;;;;;;;11.03;62.65;101918.97;5036865;28;20053;-67
2022/02/02 22:55:15;;;;;;;9.05;2.40;;;;;;;10.95;63.06;101915.97;5035369;28;20045;-67
2022/02/02 22:57:42;;;;;;;14.00;6.18;;;;;;;10.88;63.03;101913.53;5000509;28;20053;-66
2022/02/02 23:00:16;;;;;;;9.73;2.92;;;;;;;10.57;63.76;101914.84;5034805;28;20050;-67